createdAt,value
2023-02-16T00:00:28.881Z,99.90
2023-02-16T00:02:56.337Z,99.90
2023-02-16T00:05:31.100Z,99.90
2023-02-16T00:08:00.261Z,99.90
2023-02-16T00:10:32.846Z,99.90
2023-02-16T00:13:18.867Z,99.90
2023-02-16T00:15:47.227Z,99.90
2023-02-16T00:18:20.598Z,99.90
2023-02-16T00:20:49.596Z,99.90
2023-02-16T00:23:17.037Z,99.90
2023-02-16T00:25:44.428Z,99.80
2023-02-16T00:28:18.052Z,99.40
2023-02-16T00:30:46.006Z,99.40
2023-02-16T00:33:16.745Z,99.10
2023-02-16T00:35:44.931Z,98.60
2023-02-16T00:38:14.002Z,98.50
2023-02-16T00:40:42.871Z,98.50
2023-02-16T00:43:29.189Z,97.70
2023-02-16T00:45:57.641Z,97.20
2023-02-16T00:48:25.420Z,97.30
2023-02-16T00:50:54.144Z,97.40
2023-02-16T00:53:21.436Z,97.80
2023-02-16T00:55:48.789Z,97.90
2023-02-16T00:58:29.862Z,98.00
2023-02-16T01:01:06.477Z,98.10
2023-02-16T01:03:34.138Z,98.10
2023-02-16T01:06:19.775Z,97.70
2023-02-16T01:09:08.332Z,96.90
2023-02-16T01:11:35.892Z,97.10
2023-02-16T01:14:03.182Z,97.00
2023-02-16T01:16:41.410Z,96.70
2023-02-16T01:19:11.662Z,96.70
2023-02-16T01:21:39.536Z,97.20
2023-02-16T01:24:07.113Z,97.40
2023-02-16T01:26:40.907Z,97.00
2023-02-16T01:29:12.320Z,97.00
2023-02-16T01:31:39.847Z,96.60
2023-02-16T01:34:07.221Z,96.50
2023-02-16T01:36:46.771Z,96.40
2023-02-16T01:39:19.406Z,96.10
2023-02-16T01:42:14.460Z,95.50
2023-02-16T01:44:52.033Z,95.10
2023-02-16T01:47:38.285Z,94.60
2023-02-16T01:50:15.299Z,94.70
2023-02-16T01:52:48.018Z,94.90
2023-02-16T01:55:25.226Z,95.00
2023-02-16T01:58:07.332Z,95.00
2023-02-16T02:00:50.076Z,95.40
2023-02-16T02:03:54.550Z,95.40
2023-02-16T02:06:31.497Z,95.80
2023-02-16T02:09:13.822Z,95.50
2023-02-16T02:11:50.643Z,95.70
2023-02-16T02:14:22.893Z,95.70
2023-02-16T02:17:01.818Z,95.60
2023-02-16T02:19:39.458Z,94.70
2023-02-16T02:22:44.737Z,94.10
2023-02-16T02:25:43.528Z,94.10
2023-02-16T02:28:29.572Z,94.40
2023-02-16T02:31:57.460Z,94.70
2023-02-16T02:35:08.010Z,95.20
2023-02-16T02:38:09.761Z,95.00
2023-02-16T02:41:02.497Z,94.30
2023-02-16T02:43:37.789Z,93.70
2023-02-16T02:46:25.683Z,93.10
2023-02-16T02:48:53.558Z,93.80
2023-02-16T02:51:31.129Z,93.90
2023-02-16T02:54:51.311Z,94.30
2023-02-16T02:57:46.297Z,94.90
2023-02-16T03:00:38.718Z,95.30
2023-02-16T03:03:16.753Z,94.90
2023-02-16T03:05:53.269Z,94.70
2023-02-16T03:08:25.497Z,95.50
2023-02-16T03:11:16.124Z,95.80
2023-02-16T03:13:48.126Z,95.10
2023-02-16T03:16:28.151Z,95.50
2023-02-16T03:19:16.366Z,94.10
2023-02-16T03:22:03.079Z,93.70
2023-02-16T03:24:51.517Z,94.20
2023-02-16T03:27:42.895Z,94.90
2023-02-16T03:30:12.448Z,94.60
2023-02-16T03:32:40.329Z,94.40
2023-02-16T03:35:08.839Z,94.50
2023-02-16T03:37:36.527Z,94.20
2023-02-16T03:40:26.320Z,94.20
2023-02-16T03:42:53.785Z,94.20
2023-02-16T03:45:21.942Z,94.40
2023-02-16T03:47:49.469Z,94.50
2023-02-16T03:50:17.030Z,94.90
2023-02-16T03:52:44.347Z,95.20
2023-02-16T03:55:11.775Z,95.00
2023-02-16T03:57:39.174Z,95.20
2023-02-16T04:00:07.103Z,94.40
2023-02-16T04:02:40.353Z,94.20
2023-02-16T04:05:07.884Z,93.60
2023-02-16T04:07:35.211Z,93.60
2023-02-16T04:10:02.646Z,94.40
2023-02-16T04:12:38.885Z,95.10
2023-02-16T04:15:14.194Z,95.20
2023-02-16T04:17:42.076Z,96.00
2023-02-16T04:20:11.943Z,96.30
2023-02-16T04:22:39.706Z,95.90
2023-02-16T04:25:07.701Z,95.80
2023-02-16T04:27:35.090Z,96.70
2023-02-16T04:30:02.568Z,96.30
2023-02-16T04:32:30.265Z,95.80
2023-02-16T04:34:57.582Z,95.60
2023-02-16T04:37:25.042Z,96.20
2023-02-16T04:39:52.310Z,96.70
2023-02-16T04:42:19.661Z,96.70
2023-02-16T04:44:46.993Z,97.10
2023-02-16T04:47:14.666Z,97.20
2023-02-16T04:49:42.091Z,97.40
2023-02-16T04:52:09.834Z,97.70
2023-02-16T04:54:37.139Z,97.30
2023-02-16T04:57:04.597Z,97.30
2023-02-16T04:59:32.057Z,97.50
2023-02-16T05:01:59.404Z,96.60
2023-02-16T05:04:26.889Z,96.80
2023-02-16T05:06:54.890Z,96.20
2023-02-16T05:09:22.285Z,96.10
2023-02-16T05:12:08.117Z,96.00
2023-02-16T05:14:42.316Z,96.20
2023-02-16T05:17:13.508Z,96.20
2023-02-16T05:19:42.505Z,96.20
2023-02-16T05:22:10.843Z,96.20
2023-02-16T05:24:39.101Z,96.00
2023-02-16T05:27:08.530Z,96.20
2023-02-16T05:29:36.078Z,95.50
2023-02-16T05:32:04.790Z,95.60
2023-02-16T05:34:32.433Z,95.80
2023-02-16T05:36:59.756Z,95.60
2023-02-16T05:39:27.333Z,95.30
2023-02-16T05:41:54.597Z,95.10
2023-02-16T05:44:22.023Z,95.50
2023-02-16T05:46:49.414Z,95.50
2023-02-16T05:49:18.255Z,95.60
2023-02-16T05:51:45.747Z,95.30
2023-02-16T05:54:17.514Z,94.90
2023-02-16T05:56:50.834Z,94.90
2023-02-16T05:59:18.857Z,94.60
2023-02-16T06:01:50.946Z,94.30
2023-02-16T06:04:19.859Z,94.10
2023-02-16T06:06:47.491Z,93.90
2023-02-16T06:09:15.040Z,93.50
2023-02-16T06:11:43.260Z,93.10
2023-02-16T06:14:16.449Z,92.90
2023-02-16T06:16:47.518Z,92.60
2023-02-16T06:19:17.195Z,91.60
2023-02-16T06:21:44.975Z,91.30
2023-02-16T06:24:14.426Z,91.10
2023-02-16T06:26:42.259Z,90.80
2023-02-16T06:29:09.851Z,90.30
2023-02-16T06:31:37.648Z,89.90
2023-02-16T06:34:05.926Z,89.40
2023-02-16T06:36:34.218Z,89.20
2023-02-16T06:39:01.588Z,89.00
2023-02-16T06:41:31.800Z,88.90
2023-02-16T06:44:06.535Z,88.50
2023-02-16T06:46:34.188Z,88.30
2023-02-16T06:49:01.914Z,88.10
2023-02-16T06:51:29.786Z,87.90
2023-02-16T06:53:57.361Z,87.30
2023-02-16T06:56:25.338Z,86.70
2023-02-16T06:58:52.608Z,85.90
2023-02-16T07:01:23.500Z,85.60
2023-02-16T07:03:52.249Z,85.60
2023-02-16T07:06:20.160Z,85.70
2023-02-16T07:08:47.676Z,85.30
2023-02-16T07:11:15.869Z,84.80
2023-02-16T07:13:43.669Z,84.50
2023-02-16T07:16:11.778Z,84.10
2023-02-16T07:18:39.333Z,84.20
2023-02-16T07:21:07.098Z,84.00
2023-02-16T07:23:34.778Z,83.70
2023-02-16T07:26:02.039Z,83.60
2023-02-16T07:28:29.377Z,83.40
2023-02-16T07:30:56.776Z,83.40
2023-02-16T07:33:24.131Z,82.20
2023-02-16T07:35:51.680Z,81.80
2023-02-16T07:38:18.960Z,81.10
2023-02-16T07:40:46.180Z,79.60
2023-02-16T07:43:13.985Z,78.20
2023-02-16T07:45:42.567Z,77.00
2023-02-16T07:48:10.170Z,76.20
2023-02-16T07:50:37.916Z,75.00
2023-02-16T07:53:05.607Z,74.10
2023-02-16T07:55:32.913Z,73.80
2023-02-16T07:58:00.536Z,73.30
2023-02-16T08:00:27.814Z,72.80
2023-02-16T08:02:55.158Z,71.80
2023-02-16T08:05:22.480Z,71.20
2023-02-16T08:07:49.907Z,70.40
2023-02-16T08:10:17.839Z,68.70
2023-02-16T08:12:45.075Z,67.80
2023-02-16T08:15:12.771Z,66.80
2023-02-16T08:17:40.164Z,66.30
2023-02-16T08:20:08.643Z,66.10
2023-02-16T08:22:37.218Z,66.10
2023-02-16T08:25:07.011Z,65.40
2023-02-16T08:27:34.851Z,64.40
2023-02-16T08:30:02.681Z,64.60
2023-02-16T08:32:30.486Z,64.70
2023-02-16T08:34:57.799Z,63.70
2023-02-16T08:37:25.147Z,63.70
2023-02-16T08:39:52.483Z,63.20
2023-02-16T08:42:19.628Z,62.70
2023-02-16T08:44:47.228Z,63.80
2023-02-16T08:47:16.942Z,64.20
2023-02-16T08:49:44.693Z,63.90
2023-02-16T08:52:12.591Z,63.80
2023-02-16T08:54:40.053Z,63.30
2023-02-16T08:57:07.788Z,64.90
2023-02-16T08:59:35.217Z,65.10
2023-02-16T09:02:02.758Z,65.10
2023-02-16T09:04:30.569Z,64.30
2023-02-16T09:06:58.638Z,64.60
2023-02-16T09:09:26.588Z,64.30
2023-02-16T09:11:54.548Z,64.00
2023-02-16T09:14:23.377Z,63.70
2023-02-16T09:16:51.177Z,63.80
2023-02-16T09:19:20.821Z,64.50
2023-02-16T09:21:51.118Z,64.70
2023-02-16T09:24:19.269Z,63.90
2023-02-16T09:26:46.767Z,64.10
2023-02-16T09:29:14.260Z,63.70
2023-02-16T09:31:44.502Z,63.30
2023-02-16T09:34:14.929Z,62.70
2023-02-16T09:36:42.789Z,62.40
2023-02-16T09:39:09.967Z,64.20
2023-02-16T09:41:43.371Z,64.60
2023-02-16T09:44:48.393Z,64.30
2023-02-16T09:47:32.287Z,63.50
2023-02-16T09:50:52.119Z,62.80
2023-02-16T09:53:36.382Z,61.80
2023-02-16T09:56:27.664Z,62.80
2023-02-16T09:59:27.132Z,62.70
2023-02-16T10:02:52.707Z,62.00
2023-02-16T10:05:28.991Z,62.90
2023-02-16T10:07:56.243Z,61.40
2023-02-16T10:10:29.949Z,61.70
2023-02-16T10:13:07.687Z,61.70
2023-02-16T10:15:37.983Z,60.70
2023-02-16T10:18:24.608Z,60.30
2023-02-16T10:20:56.783Z,58.40
2023-02-16T10:23:39.218Z,57.70
2023-02-16T10:26:14.316Z,57.80
2023-02-16T10:28:55.619Z,57.60
2023-02-16T10:31:28.762Z,56.50
2023-02-16T10:34:51.143Z,56.20
2023-02-16T10:37:33.206Z,53.30
2023-02-16T10:40:28.097Z,52.80
2023-02-16T10:43:14.604Z,50.30
2023-02-16T10:45:51.950Z,50.40
2023-02-16T10:48:21.263Z,50.90
2023-02-16T10:51:18.887Z,50.60
2023-02-16T10:54:18.796Z,49.60
2023-02-16T10:56:49.763Z,48.40
2023-02-16T10:59:30.334Z,47.20
2023-02-16T11:02:17.230Z,46.20
2023-02-16T11:04:47.368Z,44.50
2023-02-16T11:07:24.698Z,45.40
2023-02-16T11:09:55.077Z,42.50
2023-02-16T11:12:35.425Z,41.30
2023-02-16T11:15:29.813Z,40.70
2023-02-16T11:18:30.017Z,42.50
2023-02-16T11:20:59.132Z,42.40
2023-02-16T11:23:29.438Z,43.30
2023-02-16T11:26:03.850Z,43.20
2023-02-16T11:28:41.110Z,41.30
2023-02-16T11:31:37.641Z,41.40
2023-02-16T11:34:28.830Z,42.20
2023-02-16T11:37:25.404Z,43.50
2023-02-16T11:40:02.764Z,41.30
2023-02-16T11:42:47.701Z,40.50
2023-02-16T11:45:44.501Z,41.40
2023-02-16T11:48:14.935Z,39.60
2023-02-16T11:50:58.497Z,40.90
2023-02-16T11:53:29.689Z,39.10
2023-02-16T11:56:27.347Z,38.90
2023-02-16T11:59:19.354Z,39.30
2023-02-16T12:02:12.239Z,39.10
2023-02-16T12:04:59.875Z,38.40
2023-02-16T12:07:49.002Z,38.30
2023-02-16T12:10:39.728Z,38.00
2023-02-16T12:13:24.205Z,34.70
2023-02-16T12:16:00.649Z,37.70
2023-02-16T12:18:44.049Z,38.10
2023-02-16T12:21:32.377Z,37.30
2023-02-16T12:24:23.168Z,37.20
2023-02-16T12:26:55.323Z,37.00
2023-02-16T12:29:45.146Z,37.90
2023-02-16T12:32:24.190Z,38.40
2023-02-16T12:35:13.414Z,39.40
2023-02-16T12:37:51.749Z,38.90
2023-02-16T12:40:40.669Z,39.60
2023-02-16T12:43:28.424Z,40.20
2023-02-16T12:46:00.460Z,39.90
2023-02-16T12:48:46.302Z,40.10
2023-02-16T12:51:19.375Z,39.80
2023-02-16T12:54:05.162Z,40.90
2023-02-16T12:56:39.050Z,41.80
2023-02-16T12:59:37.082Z,42.60
2023-02-16T13:02:13.455Z,43.40
2023-02-16T13:04:52.913Z,42.30
2023-02-16T13:07:36.728Z,40.50
2023-02-16T13:10:30.632Z,38.00
2023-02-16T13:13:26.208Z,36.20
2023-02-16T13:16:27.840Z,36.80
2023-02-16T13:18:57.329Z,37.90
2023-02-16T13:21:50.838Z,36.20
2023-02-16T13:24:24.586Z,35.90
2023-02-16T13:26:51.858Z,36.00
2023-02-16T13:29:31.021Z,37.60
2023-02-16T13:32:22.982Z,38.80
2023-02-16T13:35:37.535Z,40.20
2023-02-16T13:38:19.230Z,40.00
2023-02-16T13:40:58.567Z,40.50
2023-02-16T13:43:37.441Z,41.30
2023-02-16T13:46:13.169Z,41.30
2023-02-16T13:48:47.617Z,40.50
2023-02-16T13:51:20.912Z,39.40
2023-02-16T13:53:59.491Z,39.70
2023-02-16T13:56:33.610Z,39.10
2023-02-16T13:59:21.362Z,40.50
2023-02-16T14:01:54.512Z,40.60
2023-02-16T14:04:25.626Z,51.00
2023-02-16T14:07:19.300Z,52.40
2023-02-16T14:09:50.147Z,55.40
2023-02-16T14:12:27.573Z,56.80
2023-02-16T14:14:57.210Z,57.70
2023-02-16T14:17:35.441Z,57.70
2023-02-16T14:20:27.351Z,58.40
2023-02-16T14:23:03.000Z,58.80
2023-02-16T14:25:36.985Z,59.10
2023-02-16T14:28:29.904Z,58.70
2023-02-16T14:31:23.171Z,60.10
2023-02-16T14:34:05.819Z,59.90
2023-02-16T14:36:33.775Z,58.90
2023-02-16T14:39:01.793Z,58.90
2023-02-16T14:41:32.735Z,60.10
2023-02-16T14:44:06.177Z,61.20
2023-02-16T14:47:03.850Z,60.70
2023-02-16T14:49:34.382Z,65.40
2023-02-16T14:52:19.758Z,65.20
2023-02-16T14:55:05.913Z,65.10
2023-02-16T14:57:53.372Z,65.70
2023-02-16T15:00:48.763Z,65.70
2023-02-16T15:03:23.307Z,66.10
2023-02-16T15:06:04.694Z,67.50
2023-02-16T15:08:36.358Z,66.90
2023-02-16T15:11:16.657Z,66.80
2023-02-16T15:13:45.079Z,65.30
2023-02-16T15:16:16.677Z,64.70
2023-02-16T15:18:50.433Z,63.50
2023-02-16T15:21:22.990Z,64.20
2023-02-16T15:23:53.612Z,63.70
2023-02-16T15:26:25.546Z,62.70
2023-02-16T15:28:59.306Z,62.30
2023-02-16T15:31:34.092Z,63.40
2023-02-16T15:34:07.611Z,64.70
2023-02-16T15:36:43.772Z,64.60
2023-02-16T15:39:37.918Z,64.80
2023-02-16T15:42:19.979Z,65.20
2023-02-16T15:44:48.269Z,65.30
2023-02-16T15:47:26.780Z,66.50
2023-02-16T15:49:55.215Z,67.20
2023-02-16T15:52:36.156Z,67.10
2023-02-16T15:55:06.963Z,67.70
2023-02-16T15:57:40.148Z,68.80
2023-02-16T16:00:21.884Z,68.80
2023-02-16T16:02:54.897Z,69.30
2023-02-16T16:05:25.589Z,68.60
2023-02-16T16:07:54.052Z,68.20
2023-02-16T16:10:32.652Z,67.80
2023-02-16T16:13:03.417Z,68.30
2023-02-16T16:15:33.961Z,68.50
2023-02-16T16:18:02.940Z,69.50
2023-02-16T16:20:37.743Z,71.60
2023-02-16T16:23:26.165Z,72.50
2023-02-16T16:25:53.981Z,74.10
2023-02-16T16:28:29.937Z,74.70
2023-02-16T16:31:27.415Z,75.70
2023-02-16T16:34:05.138Z,77.20
2023-02-16T16:36:53.560Z,77.50
2023-02-16T16:39:41.656Z,77.30
2023-02-16T16:42:18.382Z,76.40
2023-02-16T16:45:19.561Z,75.50
2023-02-16T16:47:52.033Z,75.20
2023-02-16T16:50:32.579Z,75.40
2023-02-16T16:53:00.977Z,73.90
2023-02-16T16:55:31.951Z,73.20
2023-02-16T16:58:10.891Z,72.90
2023-02-16T17:00:39.955Z,73.00
2023-02-16T17:03:16.076Z,73.60
2023-02-16T17:05:44.460Z,74.30
2023-02-16T17:08:12.365Z,74.80
2023-02-16T17:10:41.455Z,75.70
2023-02-16T17:13:16.080Z,76.40
2023-02-16T17:15:59.368Z,77.20
2023-02-16T17:18:26.744Z,77.40
2023-02-16T17:20:54.025Z,78.00
2023-02-16T17:23:22.936Z,78.30
2023-02-16T17:25:50.939Z,78.30
2023-02-16T17:28:19.801Z,78.50
2023-02-16T17:30:47.245Z,78.80
2023-02-16T17:33:14.493Z,79.00
2023-02-16T17:35:43.889Z,79.60
2023-02-16T17:38:22.652Z,80.20
2023-02-16T17:40:51.561Z,80.70
2023-02-16T17:43:20.467Z,81.00
2023-02-16T17:45:49.611Z,81.20
2023-02-16T17:48:19.001Z,77.10
2023-02-16T17:50:46.559Z,71.80
2023-02-16T17:53:16.382Z,69.80
2023-02-16T17:55:45.144Z,67.20
2023-02-16T17:58:13.274Z,67.10
2023-02-16T18:00:41.408Z,66.90
2023-02-16T18:03:09.402Z,66.50
2023-02-16T18:05:37.311Z,66.40
2023-02-16T18:08:05.907Z,66.40
2023-02-16T18:10:33.166Z,66.60
2023-02-16T18:13:01.087Z,66.50
2023-02-16T18:15:28.947Z,66.70
2023-02-16T18:17:56.748Z,66.80
2023-02-16T18:20:24.426Z,67.50
2023-02-16T18:22:51.881Z,67.70
2023-02-16T18:25:19.935Z,67.90
2023-02-16T18:27:47.653Z,68.40
2023-02-16T18:30:16.247Z,69.10
2023-02-16T18:32:45.695Z,69.40
2023-02-16T18:35:15.056Z,69.80
2023-02-16T18:37:43.945Z,70.50
2023-02-16T18:40:15.587Z,71.00
2023-02-16T18:42:43.260Z,71.40
2023-02-16T18:45:10.847Z,71.80
2023-02-16T18:47:38.290Z,72.00
2023-02-16T18:50:06.502Z,72.50
2023-02-16T18:52:33.790Z,73.00
2023-02-16T18:55:01.157Z,73.50
2023-02-16T18:57:28.577Z,74.00
2023-02-16T18:59:55.997Z,73.90
2023-02-16T19:02:23.389Z,73.90
2023-02-16T19:04:50.721Z,74.00
2023-02-16T19:07:18.950Z,74.20
2023-02-16T19:09:46.292Z,74.50
2023-02-16T19:12:13.635Z,74.70
2023-02-16T19:14:40.924Z,74.70
2023-02-16T19:17:08.267Z,74.90
2023-02-16T19:19:36.209Z,75.20
2023-02-16T19:22:03.992Z,75.60
2023-02-16T19:24:31.643Z,76.10
2023-02-16T19:26:59.066Z,76.20
2023-02-16T19:29:26.341Z,76.20
2023-02-16T19:31:54.356Z,76.50
2023-02-16T19:34:21.625Z,75.90
2023-02-16T19:36:49.220Z,75.50
2023-02-16T19:39:16.797Z,75.60
2023-02-16T19:41:44.463Z,75.50
2023-02-16T19:44:14.318Z,76.20
2023-02-16T19:46:42.139Z,76.60
2023-02-16T19:49:12.522Z,76.80
2023-02-16T19:51:39.852Z,77.10
2023-02-16T19:54:07.114Z,77.50
2023-02-16T19:56:36.502Z,77.80
2023-02-16T19:59:03.977Z,78.20
2023-02-16T20:01:31.373Z,78.10
2023-02-16T20:04:00.347Z,78.40
2023-02-16T20:06:34.765Z,78.70
2023-02-16T20:09:02.240Z,78.90
2023-02-16T20:11:29.992Z,79.10
2023-02-16T20:13:58.245Z,79.20
2023-02-16T20:16:27.117Z,79.50
2023-02-16T20:18:55.399Z,80.00
2023-02-16T20:21:26.100Z,80.20
2023-02-16T20:23:56.959Z,80.40
2023-02-16T20:26:33.647Z,80.80
2023-02-16T20:29:02.159Z,81.10
2023-02-16T20:31:34.155Z,81.40
2023-02-16T20:34:02.597Z,81.40
2023-02-16T20:36:29.930Z,81.70
2023-02-16T20:38:57.456Z,82.10
2023-02-16T20:41:25.858Z,81.60
2023-02-16T20:43:53.554Z,81.10
2023-02-16T20:46:23.667Z,80.80
2023-02-16T20:48:51.674Z,80.60
2023-02-16T20:51:19.315Z,80.80
2023-02-16T20:53:46.819Z,81.20
2023-02-16T20:56:21.351Z,80.90
2023-02-16T20:58:50.158Z,81.20
2023-02-16T21:01:17.366Z,81.70
2023-02-16T21:03:45.397Z,81.00
2023-02-16T21:06:12.732Z,81.00
2023-02-16T21:08:40.432Z,81.20
2023-02-16T21:11:08.059Z,81.20
2023-02-16T21:13:35.561Z,81.40
2023-02-16T21:16:04.837Z,81.30
2023-02-16T21:18:32.214Z,81.80
2023-02-16T21:21:03.605Z,81.90
2023-02-16T21:23:31.279Z,81.70
2023-02-16T21:26:04.287Z,81.90
2023-02-16T21:28:31.975Z,81.70
2023-02-16T21:31:07.083Z,81.60
2023-02-16T21:33:34.714Z,82.00
2023-02-16T21:36:10.759Z,81.70
2023-02-16T21:38:39.529Z,81.60
2023-02-16T21:41:26.952Z,82.10
2023-02-16T21:44:05.198Z,82.00
2023-02-16T21:46:44.458Z,82.30
2023-02-16T21:49:19.622Z,81.80
2023-02-16T21:51:48.356Z,81.70
2023-02-16T21:54:38.836Z,82.00
2023-02-16T21:57:06.230Z,82.50
2023-02-16T21:59:34.144Z,82.70
2023-02-16T22:02:01.535Z,83.00
2023-02-16T22:04:28.872Z,82.70
2023-02-16T22:06:56.421Z,82.90
2023-02-16T22:09:23.772Z,82.90
2023-02-16T22:11:51.891Z,83.00
2023-02-16T22:14:20.028Z,82.80
2023-02-16T22:16:48.377Z,82.90
2023-02-16T22:19:18.317Z,83.30
2023-02-16T22:21:47.868Z,83.70
2023-02-16T22:24:17.333Z,84.10
2023-02-16T22:26:45.752Z,84.40
2023-02-16T22:29:13.270Z,84.80
2023-02-16T22:31:46.134Z,84.80
2023-02-16T22:34:16.928Z,85.10
2023-02-16T22:36:44.705Z,85.50
2023-02-16T22:39:13.970Z,85.70
2023-02-16T22:41:41.433Z,85.90
2023-02-16T22:44:11.213Z,86.40
2023-02-16T22:46:38.826Z,86.20
2023-02-16T22:49:06.195Z,86.30
2023-02-16T22:51:33.566Z,86.50
2023-02-16T22:54:02.210Z,86.60
2023-02-16T22:56:30.656Z,86.50
2023-02-16T22:58:59.527Z,85.60
2023-02-16T23:01:29.453Z,85.30
2023-02-16T23:03:58.151Z,85.20
2023-02-16T23:06:37.256Z,85.10
2023-02-16T23:09:08.512Z,85.60
2023-02-16T23:11:36.679Z,85.80
2023-02-16T23:14:04.870Z,86.10
2023-02-16T23:16:32.809Z,86.40
2023-02-16T23:19:00.555Z,86.80
2023-02-16T23:21:33.086Z,86.90
2023-02-16T23:24:00.921Z,87.00
2023-02-16T23:26:30.568Z,86.80
2023-02-16T23:29:01.284Z,87.10
2023-02-16T23:31:33.004Z,87.10
2023-02-16T23:34:02.613Z,87.10
2023-02-16T23:36:31.744Z,87.30
2023-02-16T23:39:01.055Z,87.50
2023-02-16T23:41:28.466Z,87.60
2023-02-16T23:43:56.708Z,88.00
2023-02-16T23:46:24.605Z,87.90
2023-02-16T23:48:52.340Z,88.10
2023-02-16T23:51:19.617Z,88.20
2023-02-16T23:53:46.913Z,88.20
2023-02-16T23:56:21.006Z,88.50
2023-02-16T23:58:49.490Z,88.40
